createdAt,value
2018-08-09T00:00:00.901Z,38.23
2018-08-09T00:02:30.621Z,43.20
2018-08-09T00:05:00.581Z,42.17
2018-08-09T00:07:30.620Z,41.58
2018-08-09T00:10:00.362Z,44.38
2018-08-09T00:12:30.175Z,45.23
2018-08-09T00:15:00.003Z,48.78
2018-08-09T00:17:29.921Z,48.68
2018-08-09T00:19:59.778Z,47.03
2018-08-09T00:25:04.721Z,43.40
2018-08-09T00:27:34.794Z,42.53
2018-08-09T00:30:04.881Z,43.10
2018-08-09T00:32:52.281Z,43.87
2018-08-09T00:35:22.282Z,37.88
2018-08-09T00:37:52.237Z,36.08
2018-08-09T00:40:22.115Z,34.63
2018-08-09T00:42:52.115Z,31.70
2018-08-09T00:45:22.015Z,30.65
2018-08-09T00:47:51.894Z,28.67
2018-08-09T00:50:21.874Z,31.77
2018-08-09T00:52:51.656Z,28.35
2018-08-09T00:55:21.474Z,27.22
2018-08-09T00:57:51.481Z,29.82
2018-08-09T01:00:21.321Z,26.87
2018-08-09T01:02:51.234Z,27.25
2018-08-09T01:05:21.242Z,23.57
2018-08-09T01:07:51.181Z,28.42
2018-08-09T01:10:20.944Z,30.68
2018-08-09T01:12:50.681Z,28.70
2018-08-09T01:15:20.655Z,30.45
2018-08-09T01:17:50.595Z,30.20
2018-08-09T01:20:20.594Z,30.62
2018-08-09T01:22:50.650Z,30.50
2018-08-09T01:25:20.454Z,32.50
2018-08-09T01:27:50.234Z,31.68
2018-08-09T01:30:20.554Z,28.62
2018-08-09T01:32:50.448Z,30.00
2018-08-09T01:35:20.421Z,32.00
2018-08-09T01:37:50.414Z,33.08
2018-08-09T01:40:20.116Z,33.67
2018-08-09T01:43:00.380Z,34.40
2018-08-09T01:45:30.313Z,38.25
2018-08-09T01:48:00.255Z,32.28
2018-08-09T01:50:30.113Z,40.05
2018-08-09T01:52:59.993Z,37.45
2018-08-09T01:55:29.673Z,36.93
2018-08-09T01:57:59.600Z,38.92
2018-08-09T02:00:29.320Z,44.10
2018-08-09T02:02:59.296Z,36.73
2018-08-09T02:05:29.217Z,41.20
2018-08-09T02:07:59.113Z,38.40
2018-08-09T02:10:29.300Z,40.40
2018-08-09T02:12:59.240Z,36.42
2018-08-09T02:15:29.959Z,34.83
2018-08-09T02:18:00.380Z,34.20
2018-08-09T02:20:30.325Z,35.30
2018-08-09T02:23:00.319Z,39.55
2018-08-09T02:25:30.185Z,42.70
2018-08-09T02:28:00.119Z,39.48
2018-08-09T02:30:29.880Z,39.65
2018-08-09T02:32:59.951Z,39.38
2018-08-09T02:35:29.759Z,43.92
2018-08-09T02:37:59.718Z,42.17
2018-08-09T02:40:29.518Z,42.90
2018-08-09T02:42:59.878Z,43.02
2018-08-09T02:45:29.632Z,40.38
2018-08-09T02:47:59.451Z,31.45
2018-08-09T02:50:29.159Z,42.25
2018-08-09T02:52:59.091Z,36.85
2018-08-09T02:55:29.109Z,39.67
2018-08-09T02:57:59.098Z,38.42
2018-08-09T03:00:28.953Z,40.15
2018-08-09T03:02:58.910Z,39.70
2018-08-09T03:05:28.690Z,43.42
2018-08-09T03:07:58.658Z,46.55
2018-08-09T03:10:28.370Z,47.93
2018-08-09T03:12:58.276Z,44.27
2018-08-09T03:15:28.051Z,45.25
2018-08-09T03:17:58.190Z,46.02
2018-08-09T03:20:28.089Z,36.88
2018-08-09T03:22:58.048Z,39.23
2018-08-09T03:25:27.749Z,41.10
2018-08-09T03:27:57.689Z,44.10
2018-08-09T03:30:27.491Z,40.90
2018-08-09T03:32:57.350Z,47.70
2018-08-09T03:35:27.083Z,46.33
2018-08-09T03:37:57.261Z,49.15
2018-08-09T03:40:28.187Z,45.15
2018-08-09T03:42:59.104Z,47.08
2018-08-09T03:45:29.067Z,44.37
2018-08-09T03:47:58.985Z,50.17
2018-08-09T03:50:28.898Z,51.87
2018-08-09T03:52:58.812Z,51.27
2018-08-09T03:55:28.680Z,48.23
2018-08-09T03:57:58.840Z,50.37
2018-08-09T04:00:28.611Z,55.43
2018-08-09T04:02:58.799Z,44.10
2018-08-09T04:05:29.681Z,49.03
2018-08-09T04:08:00.690Z,41.47
2018-08-09T04:10:30.766Z,42.23
2018-08-09T04:13:00.944Z,47.60
2018-08-09T04:15:30.913Z,51.13
2018-08-09T04:18:00.854Z,49.90
2018-08-09T04:20:31.218Z,50.77
2018-08-09T04:23:01.365Z,55.60
2018-08-09T04:25:31.293Z,49.77
2018-08-09T04:28:01.340Z,48.17
2018-08-09T04:30:31.072Z,48.57
2018-08-09T04:33:00.944Z,50.65
2018-08-09T04:35:30.910Z,50.67
2018-08-09T04:38:00.885Z,46.15
2018-08-09T04:40:31.067Z,47.15
2018-08-09T04:43:01.160Z,46.80
2018-08-09T04:45:30.924Z,50.90
2018-08-09T04:48:00.846Z,46.85
2018-08-09T04:50:30.771Z,47.53
2018-08-09T04:53:00.666Z,48.28
2018-08-09T04:55:30.400Z,47.58
2018-08-09T04:58:00.386Z,48.92
2018-08-09T05:00:30.119Z,40.15
2018-08-09T05:03:00.206Z,40.50
2018-08-09T05:05:29.995Z,38.67
2018-08-09T05:08:00.102Z,41.30
2018-08-09T05:10:29.952Z,39.33
2018-08-09T05:12:59.988Z,35.40
2018-08-09T05:15:29.819Z,43.73
2018-08-09T05:17:59.798Z,44.50
2018-08-09T05:20:29.483Z,59.85
2018-08-09T05:22:59.393Z,48.30
2018-08-09T05:25:29.363Z,43.60
2018-08-09T05:27:59.302Z,36.15
2018-08-09T05:30:29.286Z,30.00
2018-08-09T05:32:59.264Z,19.62
2018-08-09T05:35:29.005Z,16.87
2018-08-09T05:37:59.019Z,17.80
2018-08-09T05:40:28.899Z,16.15
2018-08-09T05:42:58.947Z,14.55
2018-08-09T05:45:28.833Z,13.03
2018-08-09T05:47:58.741Z,13.18
2018-08-09T05:50:28.676Z,12.73
2018-08-09T05:52:58.762Z,13.40
2018-08-09T05:55:28.460Z,13.30
2018-08-09T05:57:58.392Z,12.55
2018-08-09T06:00:28.361Z,13.13
2018-08-09T06:02:58.255Z,12.07
2018-08-09T06:05:28.361Z,12.10
2018-08-09T06:07:58.333Z,12.82
2018-08-09T06:10:28.294Z,12.43
2018-08-09T06:12:58.312Z,11.45
2018-08-09T06:15:28.341Z,11.18
2018-08-09T06:17:58.484Z,10.88
2018-08-09T06:20:28.646Z,10.82
2018-08-09T06:22:58.632Z,9.58
2018-08-09T06:25:28.700Z,11.05
2018-08-09T06:27:58.725Z,9.05
2018-08-09T06:30:28.827Z,9.18
2018-08-09T06:32:58.813Z,10.63
2018-08-09T06:35:29.578Z,9.43
2018-08-09T06:37:59.800Z,12.73
2018-08-09T06:40:29.939Z,10.60
2018-08-09T06:42:59.887Z,10.40
2018-08-09T06:45:29.962Z,11.08
2018-08-09T06:48:00.367Z,10.28
2018-08-09T06:50:30.219Z,11.55
2018-08-09T06:53:00.067Z,10.72
2018-08-09T06:55:30.403Z,11.25
2018-08-09T06:58:01.875Z,10.85
2018-08-09T07:00:31.870Z,10.60
2018-08-09T07:03:03.322Z,11.30
2018-08-09T07:05:33.208Z,11.33
2018-08-09T07:08:05.302Z,11.28
2018-08-09T07:10:35.061Z,10.60
2018-08-09T07:13:06.754Z,11.45
2018-08-09T07:15:36.994Z,10.85
2018-08-09T07:18:07.444Z,11.03
2018-08-09T07:20:37.746Z,10.13
2018-08-09T07:23:09.740Z,10.75
2018-08-09T07:25:39.471Z,10.13
2018-08-09T07:28:10.953Z,11.10
2018-08-09T07:30:40.893Z,11.03
2018-08-09T07:33:11.634Z,10.70
2018-08-09T07:35:41.434Z,11.20
2018-08-09T07:38:12.593Z,10.65
2018-08-09T07:40:42.312Z,11.10
2018-08-09T07:43:13.048Z,11.20
2018-08-09T07:45:42.983Z,11.45
2018-08-09T07:48:12.813Z,10.75
2018-08-09T07:50:42.894Z,10.98
2018-08-09T07:53:14.212Z,10.20
2018-08-09T07:55:44.030Z,9.58
2018-08-09T07:58:13.972Z,10.18
2018-08-09T08:00:43.872Z,11.55
2018-08-09T08:03:13.499Z,9.90
2018-08-09T08:05:43.473Z,9.90
2018-08-09T08:08:13.180Z,9.55
2018-08-09T08:10:42.992Z,9.30
2018-08-09T08:13:12.772Z,9.53
2018-08-09T08:15:42.580Z,10.10
2018-08-09T08:18:12.485Z,9.40
2018-08-09T08:20:42.527Z,10.40
2018-08-09T08:23:12.220Z,10.08
2018-08-09T08:25:42.017Z,10.78
2018-08-09T08:28:11.972Z,9.93
2018-08-09T08:30:41.852Z,14.65
2018-08-09T08:33:11.672Z,10.70
2018-08-09T08:35:41.963Z,9.78
2018-08-09T08:38:12.313Z,13.90
2018-08-09T08:40:42.259Z,10.93
2018-08-09T08:43:12.264Z,11.05
2018-08-09T08:45:42.278Z,10.68
2018-08-09T08:48:12.155Z,9.93
2018-08-09T08:50:42.081Z,10.55
2018-08-09T08:53:12.093Z,10.80
2018-08-09T08:55:41.924Z,13.62
2018-08-09T08:58:12.065Z,10.08
2018-08-09T09:00:42.231Z,10.20
2018-08-09T09:03:12.102Z,10.18
2018-08-09T09:05:42.118Z,9.50
2018-08-09T09:08:12.525Z,10.43
2018-08-09T09:10:42.924Z,10.03
2018-08-09T09:13:12.616Z,10.30
2018-08-09T09:15:42.598Z,10.88
2018-08-09T09:18:12.578Z,11.80
2018-08-09T09:20:42.459Z,10.68
2018-08-09T09:23:12.480Z,10.40
2018-08-09T09:25:42.472Z,11.40
2018-08-09T09:28:12.363Z,10.63
2018-08-09T09:30:42.329Z,10.48
2018-08-09T09:33:12.136Z,11.03
2018-08-09T09:35:42.080Z,11.12
2018-08-09T09:38:11.877Z,10.18
2018-08-09T09:40:42.275Z,10.30
2018-08-09T09:43:12.036Z,10.40
2018-08-09T09:45:42.765Z,11.22
2018-08-09T09:48:12.837Z,11.00
2018-08-09T09:50:42.663Z,11.73
2018-08-09T09:53:12.678Z,11.73
2018-08-09T09:55:43.237Z,11.97
2018-08-09T09:58:13.137Z,11.75
2018-08-09T10:00:47.885Z,10.90
2018-08-09T10:03:17.806Z,11.40
2018-08-09T10:05:47.716Z,12.00
2018-08-09T10:08:17.698Z,11.00
2018-08-09T10:10:47.547Z,11.63
2018-08-09T10:13:17.499Z,11.28
2018-08-09T10:15:47.305Z,12.20
2018-08-09T10:18:17.005Z,12.47
2018-08-09T10:20:46.756Z,12.20
2018-08-09T10:23:16.525Z,11.48
2018-08-09T10:25:46.317Z,12.30
2018-08-09T10:28:16.317Z,12.70
2018-08-09T10:30:46.218Z,11.65
2018-08-09T10:33:16.084Z,11.25
2018-08-09T10:35:46.837Z,12.03
2018-08-09T10:38:16.839Z,14.58
2018-08-09T10:40:46.788Z,11.55
2018-08-09T10:43:16.639Z,11.95
2018-08-09T10:45:46.480Z,11.90
2018-08-09T10:48:16.163Z,11.68
2018-08-09T10:50:46.150Z,12.10
2018-08-09T10:53:15.903Z,12.50
2018-08-09T10:55:46.046Z,11.57
2018-08-09T10:58:16.024Z,11.48
2018-08-09T11:00:46.246Z,12.58
2018-08-09T11:03:16.221Z,12.60
2018-08-09T11:05:46.322Z,11.60
2018-08-09T11:08:16.022Z,11.45
2018-08-09T11:10:46.119Z,11.78
2018-08-09T11:13:16.184Z,11.70
2018-08-09T11:15:46.040Z,11.95
2018-08-09T11:18:15.911Z,11.68
2018-08-09T11:20:45.843Z,11.68
2018-08-09T11:23:15.688Z,11.83
2018-08-09T11:25:45.696Z,11.83
2018-08-09T11:28:15.548Z,11.25
2018-08-09T11:30:45.889Z,12.05
2018-08-09T11:33:15.845Z,11.68
2018-08-09T11:35:45.669Z,10.53
2018-08-09T11:38:15.309Z,10.08
2018-08-09T11:40:45.152Z,10.93
2018-08-09T11:43:14.950Z,10.40
2018-08-09T11:45:44.970Z,11.00
2018-08-09T11:48:14.844Z,11.88
2018-08-09T11:50:45.217Z,11.63
2018-08-09T11:53:15.203Z,10.85
2018-08-09T11:55:45.324Z,10.23
2018-08-09T11:58:15.163Z,10.50
2018-08-09T12:00:45.095Z,11.28
2018-08-09T12:03:14.962Z,10.60
2018-08-09T12:05:44.753Z,11.53
2018-08-09T12:08:14.756Z,11.53
2018-08-09T12:10:44.575Z,11.43
2018-08-09T12:13:14.644Z,11.38
2018-08-09T12:15:44.482Z,12.03
2018-08-09T12:18:14.604Z,11.38
2018-08-09T12:20:44.456Z,10.10
2018-08-09T12:23:14.256Z,10.53
2018-08-09T12:25:44.075Z,9.50
2018-08-09T12:28:14.179Z,9.05
2018-08-09T12:30:44.064Z,9.55
2018-08-09T12:33:13.875Z,8.83
2018-08-09T12:35:43.779Z,8.83
2018-08-09T12:38:13.941Z,8.48
2018-08-09T12:40:44.000Z,7.67
2018-08-09T12:43:13.944Z,7.65
2018-08-09T12:45:43.907Z,7.17
2018-08-09T12:48:13.815Z,7.42
2018-08-09T12:50:43.911Z,8.10
2018-08-09T12:53:13.738Z,9.10
2018-08-09T12:55:43.588Z,8.93
2018-08-09T12:58:13.416Z,9.20
2018-08-09T13:00:43.461Z,8.08
2018-08-09T13:03:13.034Z,9.00
2018-08-09T13:05:42.882Z,8.18
2018-08-09T13:08:12.675Z,8.23
2018-08-09T13:10:42.324Z,8.05
2018-08-09T13:13:12.029Z,9.20
2018-08-09T13:15:42.162Z,8.15
2018-08-09T13:18:11.771Z,8.75
2018-08-09T13:20:41.323Z,8.20
2018-08-09T13:23:11.023Z,8.70
2018-08-09T13:25:40.501Z,9.13
2018-08-09T13:28:09.975Z,9.35
2018-08-09T13:30:39.576Z,9.48
2018-08-09T13:33:09.416Z,9.43
2018-08-09T13:35:38.971Z,9.33
2018-08-09T13:38:08.686Z,9.65
2018-08-09T13:40:38.183Z,8.40
2018-08-09T13:43:07.896Z,9.73
2018-08-09T13:45:37.617Z,9.53
2018-08-09T13:48:07.458Z,9.95
2018-08-09T13:50:37.117Z,9.75
2018-08-09T13:53:06.916Z,9.35
2018-08-09T13:55:38.061Z,10.35
2018-08-09T13:58:07.772Z,10.20
2018-08-09T14:00:37.197Z,10.32
2018-08-09T14:03:06.776Z,10.43
2018-08-09T14:05:46.641Z,10.78
2018-08-09T14:08:17.998Z,10.50
2018-08-09T14:10:47.608Z,10.82
2018-08-09T14:13:17.231Z,10.80
2018-08-09T14:15:47.917Z,10.30
2018-08-09T14:18:28.369Z,10.13
2018-08-09T14:21:15.499Z,9.78
2018-08-09T14:23:47.539Z,10.60
2018-08-09T14:26:29.882Z,10.05
2018-08-09T14:29:14.169Z,10.08
2018-08-09T14:31:44.122Z,9.90
2018-08-09T14:34:16.426Z,10.05
2018-08-09T14:36:56.908Z,8.70
2018-08-09T14:39:31.353Z,9.43
2018-08-09T14:42:01.380Z,9.28
2018-08-09T14:44:32.911Z,9.50
2018-08-09T14:47:10.542Z,9.43
2018-08-09T14:49:50.621Z,10.30
2018-08-09T14:52:22.988Z,9.90
2018-08-09T14:55:05.768Z,9.40
2018-08-09T14:57:37.956Z,9.48
2018-08-09T15:00:21.261Z,9.85
2018-08-09T15:03:04.044Z,8.68
2018-08-09T15:05:53.204Z,9.58
2018-08-09T15:08:44.046Z,9.93
2018-08-09T15:11:22.542Z,9.15
2018-08-09T15:13:53.980Z,9.15
2018-08-09T15:16:25.554Z,10.23
2018-08-09T15:18:58.186Z,9.45
2018-08-09T15:21:47.484Z,9.93
2018-08-09T15:24:18.048Z,9.35
2018-08-09T15:26:47.782Z,9.80
2018-08-09T15:29:18.326Z,10.50
2018-08-09T15:31:48.766Z,9.88
2018-08-09T15:34:19.207Z,10.28
2018-08-09T15:36:48.919Z,10.48
2018-08-09T15:39:18.911Z,10.80
2018-08-09T15:41:48.700Z,10.25
2018-08-09T15:44:18.297Z,11.03
2018-08-09T15:46:47.964Z,10.48
2018-08-09T15:49:17.957Z,10.45
2018-08-09T15:51:47.652Z,10.20
2018-08-09T15:54:17.727Z,10.65
2018-08-09T15:56:47.684Z,10.40
2018-08-09T15:59:17.837Z,10.98
2018-08-09T16:01:48.250Z,10.72
2018-08-09T16:04:17.765Z,11.08
2018-08-09T16:06:47.404Z,10.68
2018-08-09T16:09:18.932Z,12.05
2018-08-09T16:11:48.755Z,10.90
2018-08-09T16:14:18.620Z,10.78
2018-08-09T16:16:48.346Z,12.07
2018-08-09T16:19:19.311Z,10.98
2018-08-09T16:21:49.166Z,11.73
2018-08-09T16:24:19.430Z,10.80
2018-08-09T16:26:49.421Z,11.28
2018-08-09T16:29:19.069Z,11.05
2018-08-09T16:31:48.803Z,11.22
2018-08-09T16:34:18.612Z,10.65
2018-08-09T16:36:48.270Z,11.45
2018-08-09T16:39:18.814Z,11.43
2018-08-09T16:41:48.742Z,12.07
2018-08-09T16:44:18.780Z,11.73
2018-08-09T16:46:50.063Z,11.35
2018-08-09T16:49:20.051Z,11.48
2018-08-09T16:51:49.701Z,11.63
2018-08-09T16:54:19.301Z,12.45
2018-08-09T16:56:49.549Z,12.70
2018-08-09T16:59:19.241Z,12.20
2018-08-09T17:01:49.568Z,13.08
2018-08-09T17:04:19.201Z,13.05
2018-08-09T17:06:48.848Z,12.18
2018-08-09T17:09:18.321Z,12.82
2018-08-09T17:11:47.961Z,13.43
2018-08-09T17:14:17.621Z,13.53
2018-08-09T17:16:47.221Z,13.88
2018-08-09T17:19:17.301Z,14.05
2018-08-09T17:21:47.144Z,14.60
2018-08-09T17:24:16.920Z,15.83
2018-08-09T17:26:46.561Z,15.88
2018-08-09T17:29:16.202Z,15.53
2018-08-09T17:31:46.842Z,16.02
2018-08-09T17:34:16.740Z,16.02
2018-08-09T17:36:46.487Z,16.15
2018-08-09T17:39:16.319Z,17.82
2018-08-09T17:41:46.270Z,17.95
2018-08-09T17:44:16.664Z,18.77
2018-08-09T17:46:46.127Z,18.32
2018-08-09T17:49:15.994Z,17.92
2018-08-09T17:51:45.947Z,18.25
2018-08-09T17:54:15.845Z,19.42
2018-08-09T17:56:45.499Z,19.87
2018-08-09T17:59:15.388Z,19.32
2018-08-09T18:01:45.160Z,19.80
2018-08-09T18:04:15.121Z,20.43
2018-08-09T18:06:44.874Z,20.30
2018-08-09T18:09:15.127Z,20.45
2018-08-09T18:11:45.015Z,21.05
2018-08-09T18:14:15.967Z,20.37
2018-08-09T18:16:45.739Z,20.52
2018-08-09T18:19:16.228Z,22.60
2018-08-09T18:21:45.867Z,22.20
2018-08-09T18:24:16.743Z,21.93
2018-08-09T18:26:47.159Z,22.15
2018-08-09T18:29:17.859Z,22.98
2018-08-09T18:31:47.880Z,23.35
2018-08-09T18:34:18.579Z,23.42
2018-08-09T18:36:48.447Z,24.40
2018-08-09T18:39:19.240Z,25.45
2018-08-09T18:41:49.160Z,25.00
2018-08-09T18:44:19.256Z,24.75
2018-08-09T18:46:49.086Z,24.87
2018-08-09T18:49:18.860Z,23.95
2018-08-09T18:51:48.828Z,24.85
2018-08-09T18:54:18.367Z,25.95
2018-08-09T18:56:47.858Z,26.68
2018-08-09T18:59:17.350Z,25.95
2018-08-09T19:01:46.943Z,26.40
2018-08-09T19:04:16.426Z,25.57
2018-08-09T19:06:45.946Z,26.60
2018-08-09T19:09:15.709Z,28.02
2018-08-09T19:11:47.261Z,26.60
2018-08-09T19:14:16.787Z,27.42
2018-08-09T19:16:46.415Z,27.30
2018-08-09T19:19:15.920Z,27.15
2018-08-09T19:21:45.407Z,28.32
2018-08-09T19:24:16.713Z,29.57
2018-08-09T19:26:47.216Z,29.35
2018-08-09T19:29:17.271Z,29.02
2018-08-09T19:31:48.131Z,29.70
2018-08-09T19:34:18.176Z,29.48
2018-08-09T19:36:48.326Z,30.80
2018-08-09T19:39:17.727Z,30.70
2018-08-09T19:41:47.266Z,32.05
2018-08-09T19:44:16.793Z,30.12
2018-08-09T19:46:46.393Z,28.77
2018-08-09T19:49:15.933Z,28.87
2018-08-09T19:51:45.531Z,29.57
2018-08-09T19:54:15.074Z,30.10
2018-08-09T19:56:44.547Z,30.08
2018-08-09T19:59:14.167Z,31.12
2018-08-09T20:01:43.727Z,31.40
2018-08-09T20:04:13.314Z,31.95
2018-08-09T20:06:42.992Z,30.27
2018-08-09T20:09:12.585Z,31.60
2018-08-09T20:11:42.134Z,31.23
2018-08-09T20:14:11.574Z,29.52
2018-08-09T20:16:41.154Z,32.17
2018-08-09T20:19:10.586Z,32.78
2018-08-09T20:21:40.215Z,33.13
2018-08-09T20:24:10.030Z,33.83
2018-08-09T20:26:39.553Z,35.63
2018-08-09T20:29:09.118Z,36.95
2018-08-09T20:31:38.635Z,35.40
2018-08-09T20:34:08.239Z,36.13
2018-08-09T20:36:37.847Z,37.00
2018-08-09T20:39:12.632Z,36.55
2018-08-09T20:41:42.275Z,35.40
2018-08-09T20:44:12.516Z,36.00
2018-08-09T20:46:42.255Z,34.27
2018-08-09T20:49:11.694Z,34.50
2018-08-09T20:51:41.161Z,33.00
2018-08-09T20:54:10.898Z,34.05
2018-08-09T20:56:40.408Z,34.13
2018-08-09T20:59:10.100Z,32.08
2018-08-09T21:01:39.741Z,33.33
2018-08-09T21:04:10.304Z,33.63
2018-08-09T21:06:39.913Z,33.78
2018-08-09T21:09:11.701Z,35.58
2018-08-09T21:11:41.731Z,35.50
2018-08-09T21:14:11.194Z,37.83
2018-08-09T21:16:40.772Z,36.55
2018-08-09T21:19:10.291Z,39.20
2018-08-09T21:21:40.076Z,38.98
2018-08-09T21:24:09.609Z,40.23
2018-08-09T21:26:39.228Z,38.55
2018-08-09T21:29:08.853Z,38.98
2018-08-09T21:31:38.382Z,38.58
2018-08-09T21:34:07.895Z,39.45
2018-08-09T21:36:37.406Z,40.80
2018-08-09T21:39:10.914Z,40.12
2018-08-09T21:41:40.850Z,39.98
2018-08-09T21:44:10.296Z,41.85
2018-08-09T21:46:40.033Z,41.00
2018-08-09T21:49:09.452Z,43.98
2018-08-09T21:51:39.129Z,44.58
2018-08-09T21:54:08.677Z,46.60
2018-08-09T21:56:38.426Z,46.33
2018-08-09T21:59:07.872Z,42.67
2018-08-09T22:01:37.488Z,43.78
2018-08-09T22:04:07.028Z,45.50
2018-08-09T22:06:41.668Z,47.78
2018-08-09T22:11:17.947Z,44.77
2018-08-09T22:13:52.756Z,46.33
2018-08-09T22:16:27.276Z,45.08
2018-08-09T22:19:01.815Z,43.48
2018-08-09T22:21:36.412Z,42.85
2018-08-09T22:24:06.272Z,40.70
2018-08-09T22:26:36.181Z,41.40
2018-08-09T22:29:05.954Z,42.53
2018-08-09T22:31:35.634Z,41.18
2018-08-09T22:34:05.083Z,40.35
2018-08-09T22:36:34.656Z,41.10
2018-08-09T22:39:04.976Z,45.55
2018-08-09T22:41:34.419Z,43.10
2018-08-09T22:44:04.512Z,42.75
2018-08-09T22:46:34.109Z,44.80
2018-08-09T22:49:04.062Z,43.50
2018-08-09T22:51:33.670Z,45.83
2018-08-09T22:54:03.201Z,44.05
2018-08-09T22:56:32.768Z,43.78
2018-08-09T22:59:02.216Z,43.28
2018-08-09T23:01:31.788Z,43.50
2018-08-09T23:04:01.199Z,45.25
2018-08-09T23:06:31.796Z,45.05
2018-08-09T23:09:01.216Z,45.05
2018-08-09T23:11:30.756Z,45.98
2018-08-09T23:14:00.220Z,46.95
2018-08-09T23:16:29.799Z,46.02
2018-08-09T23:18:59.240Z,45.60
2018-08-09T23:21:28.768Z,42.85
2018-08-09T23:23:58.183Z,47.08
2018-08-09T23:26:27.874Z,45.17
2018-08-09T23:28:57.414Z,45.95
2018-08-09T23:31:27.043Z,46.40
2018-08-09T23:33:56.620Z,49.18
2018-08-09T23:36:26.198Z,49.63
2018-08-09T23:38:55.711Z,51.60
2018-08-09T23:41:25.232Z,52.00
2018-08-09T23:43:54.736Z,51.23
2018-08-09T23:46:24.349Z,53.23
2018-08-09T23:48:53.739Z,53.30
2018-08-09T23:51:23.280Z,53.30
2018-08-09T23:53:52.841Z,56.13
2018-08-09T23:56:22.471Z,62.10
2018-08-09T23:58:51.863Z,59.85
